Time;durP1;ratioP1;P1;durP2;ratioP2;P2;SDS_P1;SDS_P2;PMS_P1;PMS_P2;Temp;Humidity;BMP_temperature;BMP_pressure;BME280_temperature;BME280_humidity;BME280_pressure;Samples;Min_cycle;Max_cycle;Signal;HPM_P1;HPM_P2
2020/12/15 00:01:23;;;;;;;11.77;7.97;;;;;;;5.73;92.31;95742.75;5058370;28;20479;-90
2020/12/15 00:03:50;;;;;;;8.83;7.30;;;;;;;5.74;91.32;95746.81;5058445;28;20438;-89
2020/12/15 00:06:18;;;;;;;11.10;7.37;;;;;;;5.74;91.45;95752.19;5035212;28;20416;-86
2020/12/15 00:08:45;;;;;;;8.90;6.30;;;;;;;5.80;91.24;95737.44;5033743;28;20441;-87
2020/12/15 00:11:17;;;;;;;9.53;7.20;;;;;;;5.78;89.93;95737.25;5034118;28;20424;-87
2020/12/15 00:13:43;;;;;;;8.97;6.80;;;;;;;5.84;90.10;95739.78;5034203;28;20430;-87
2020/12/15 00:16:10;;;;;;;11.03;7.17;;;;;;;5.83;89.56;95749.03;5033825;28;20410;-88
2020/12/15 00:18:36;;;;;;;10.37;6.33;;;;;;;5.84;89.69;95745.13;5033044;28;20455;-87
2020/12/15 00:21:02;;;;;;;11.30;7.00;;;;;;;5.89;89.09;95752.34;5033352;28;20410;-88
2020/12/15 00:23:30;;;;;;;12.13;7.20;;;;;;;5.87;89.08;95746.78;5033384;28;20424;-87
2020/12/15 00:25:56;;;;;;;10.20;6.57;;;;;;;5.86;89.22;95759.47;5035030;28;20425;-89
2020/12/15 00:28:22;;;;;;;12.13;7.27;;;;;;;5.95;88.50;95760.97;5034351;28;20433;-89
2020/12/15 00:30:49;;;;;;;7.73;5.63;;;;;;;5.90;88.12;95753.78;5033976;28;20458;-90
2020/12/15 00:33:15;;;;;;;8.97;5.97;;;;;;;5.88;88.08;95748.97;5034984;28;20422;-90
2020/12/15 00:35:42;;;;;;;8.40;6.40;;;;;;;5.91;88.53;95747.19;5035245;28;20807;-90
2020/12/15 00:38:08;;;;;;;9.43;5.80;;;;;;;5.98;88.07;95745.81;5034856;28;20504;-90
2020/12/15 00:40:35;;;;;;;10.97;6.33;;;;;;;5.95;88.13;95744.19;5034305;28;20446;-90
2020/12/15 00:43:02;;;;;;;8.90;5.33;;;;;;;5.90;87.53;95741.13;5039354;28;20430;-90
2020/12/15 00:45:28;;;;;;;9.40;5.70;;;;;;;5.88;87.69;95740.94;5038530;28;20446;-89
2020/12/15 00:47:54;;;;;;;11.43;5.13;;;;;;;5.92;87.41;95737.91;5038246;28;20530;-90
2020/12/15 00:50:21;;;;;;;13.70;6.50;;;;;;;5.95;87.53;95730.81;5038481;28;20953;-90
2020/12/15 00:52:47;;;;;;;12.63;6.67;;;;;;;5.95;86.93;95728.84;5037668;28;20418;-90
2020/12/15 00:55:13;;;;;;;9.20;5.40;;;;;;;5.96;87.27;95732.22;5038156;28;20418;-90
2020/12/15 00:57:41;;;;;;;8.53;5.47;;;;;;;6.01;86.15;95734.78;5038105;28;20462;-90
2020/12/15 01:00:09;;;;;;;10.80;5.53;;;;;;;6.05;85.48;95729.06;5037833;28;20522;-89
2020/12/15 01:02:36;;;;;;;7.83;5.20;;;;;;;6.08;84.53;95734.09;5038607;28;20501;-90
2020/12/15 01:05:03;;;;;;;7.37;4.57;;;;;;;6.19;84.28;95741.88;5038154;28;20435;-89
2020/12/15 01:07:29;;;;;;;9.60;4.50;;;;;;;6.25;84.08;95737.09;5037804;28;20471;-89
2020/12/15 01:09:55;;;;;;;5.13;4.00;;;;;;;6.26;83.57;95735.84;5037729;28;20479;-89
2020/12/15 01:12:28;;;;;;;7.63;5.20;;;;;;;6.24;83.76;95743.69;5037294;28;20443;-89
2020/12/15 01:14:55;;;;;;;8.70;6.13;;;;;;;6.21;84.46;95733.28;5038030;28;20492;-90
2020/12/15 01:17:21;;;;;;;12.53;7.00;;;;;;;6.11;85.09;95735.72;5037277;28;20437;-89
2020/12/15 01:19:47;;;;;;;13.40;7.30;;;;;;;6.11;86.07;95732.34;5037151;28;20968;-88
2020/12/15 01:22:14;;;;;;;10.17;5.83;;;;;;;6.12;85.99;95739.13;5037260;28;20439;-88
2020/12/15 01:24:40;;;;;;;9.83;6.67;;;;;;;6.11;86.54;95743.75;5036799;28;20410;-89
2020/12/15 01:27:06;;;;;;;10.93;6.87;;;;;;;6.15;86.28;95738.06;5037206;28;20443;-88
2020/12/15 01:29:33;;;;;;;11.23;7.20;;;;;;;6.06;86.96;95744.63;5037016;28;20498;-88
2020/12/15 01:32:02;;;;;;;14.20;8.10;;;;;;;6.02;87.50;95738.16;5037008;28;20410;-87
2020/12/15 01:34:29;;;;;;;9.93;7.87;;;;;;;5.96;87.44;95738.28;5036780;28;20505;-88
2020/12/15 01:36:56;;;;;;;11.23;7.43;;;;;;;5.97;88.28;95750.44;5036501;28;20962;-88
2020/12/15 01:39:22;;;;;;;15.33;8.33;;;;;;;6.01;88.22;95748.16;5036575;28;20466;-88
2020/12/15 01:41:48;;;;;;;12.30;7.97;;;;;;;5.98;87.69;95746.53;5036500;28;20424;-88
2020/12/15 01:44:15;;;;;;;12.57;8.00;;;;;;;5.91;87.73;95747.19;5036418;28;20501;-88
2020/12/15 01:46:41;;;;;;;15.87;8.70;;;;;;;5.89;88.16;95744.31;5036758;28;20421;-88
2020/12/15 01:49:10;;;;;;;11.43;7.87;;;;;;;5.88;87.58;95746.28;5036479;28;20465;-87
2020/12/15 01:51:36;;;;;;;11.20;8.37;;;;;;;5.83;88.46;95741.00;5036632;28;20454;-88
2020/12/15 01:54:04;;;;;;;13.80;8.17;;;;;;;5.91;87.65;95741.84;5035641;28;20501;-88
2020/12/15 01:56:30;;;;;;;10.63;7.50;;;;;;;5.91;88.11;95739.16;5036221;28;20429;-87
2020/12/15 01:58:58;;;;;;;11.47;8.60;;;;;;;5.87;88.22;95731.47;5037438;28;20470;-87
2020/12/15 02:01:25;;;;;;;10.57;7.90;;;;;;;5.85;88.25;95743.91;5037554;28;20533;-88
2020/12/15 02:03:52;;;;;;;11.90;7.77;;;;;;;5.88;88.42;95738.25;5036426;28;20470;-88
2020/12/15 02:06:20;;;;;;;10.83;7.63;;;;;;;5.92;87.80;95737.91;5036853;28;20451;-88
2020/12/15 02:08:47;;;;;;;12.27;7.37;;;;;;;5.99;87.29;95737.25;5035964;28;20546;-87
2020/12/15 02:11:15;;;;;;;10.00;7.27;;;;;;;5.98;87.39;95740.47;5035873;28;21025;-88
2020/12/15 02:13:41;;;;;;;11.67;6.97;;;;;;;6.08;87.37;95747.50;5036030;28;20442;-87
2020/12/15 02:16:10;;;;;;;10.10;6.83;;;;;;;6.11;87.08;95753.78;5036092;28;20447;-88
2020/12/15 02:18:37;;;;;;;11.40;6.70;;;;;;;6.03;86.30;95737.66;5035846;28;20459;-88
2020/12/15 02:21:05;;;;;;;11.33;8.00;;;;;;;6.07;86.20;95737.31;5035494;28;20430;-88
2020/12/15 02:23:32;;;;;;;9.53;5.87;;;;;;;6.08;85.62;95744.09;5036077;28;20427;-88
2020/12/15 02:25:59;;;;;;;10.33;7.40;;;;;;;6.13;85.41;95740.56;5035347;28;20443;-88
2020/12/15 02:28:25;;;;;;;8.93;5.70;;;;;;;6.15;84.64;95730.75;5035553;28;20976;-88
2020/12/15 02:30:52;;;;;;;9.20;5.60;;;;;;;6.20;84.60;95732.56;5035515;28;20457;-88
2020/12/15 02:33:18;;;;;;;5.80;4.87;;;;;;;6.28;82.83;95725.31;5035930;28;20402;-89
2020/12/15 02:35:44;;;;;;;7.30;4.60;;;;;;;6.31;82.36;95723.53;5036065;28;20421;-89
2020/12/15 02:38:10;;;;;;;5.73;4.30;;;;;;;6.30;81.16;95733.53;5035944;28;20455;-89
2020/12/15 02:40:38;;;;;;;6.00;4.00;;;;;;;6.32;81.01;95725.72;5035488;28;20422;-89
2020/12/15 02:43:04;;;;;;;5.73;3.63;;;;;;;6.40;80.88;95734.50;5036426;28;20829;-89
2020/12/15 02:45:31;;;;;;;6.53;3.87;;;;;;;6.47;80.44;95719.72;5035643;28;20422;-88
2020/12/15 02:47:57;;;;;;;6.87;3.70;;;;;;;6.54;80.06;95716.38;5035846;28;20464;-88
2020/12/15 02:50:26;;;;;;;6.43;3.83;;;;;;;6.60;79.72;95711.56;5035625;28;20832;-89
2020/12/15 02:52:52;;;;;;;3.67;3.23;;;;;;;6.59;77.52;95704.03;5035574;28;20505;-90
2020/12/15 02:55:19;;;;;;;5.50;3.87;;;;;;;6.69;77.91;95694.25;5050360;28;20422;-88
2020/12/15 02:57:49;;;;;;;8.73;4.40;;;;;;;6.73;77.27;95692.69;5059381;28;20392;-88
2020/12/15 03:00:16;;;;;;;4.63;3.53;;;;;;;6.80;77.54;95691.25;5059194;28;20422;-89
2020/12/15 03:02:43;;;;;;;4.67;3.70;;;;;;;7.16;74.39;95693.88;5059147;28;20425;-90
2020/12/15 03:05:09;;;;;;;9.20;4.50;;;;;;;7.35;72.94;95673.53;5035229;28;20428;-88
2020/12/15 03:07:35;;;;;;;4.37;3.00;;;;;;;7.23;73.33;95664.41;5035430;28;20399;-88
2020/12/15 03:10:04;;;;;;;5.23;3.57;;;;;;;7.17;73.49;95687.28;5035157;28;20491;-88
2020/12/15 03:12:30;;;;;;;7.00;3.40;;;;;;;7.28;72.98;95730.59;5035247;28;20475;-88
2020/12/15 03:14:58;;;;;;;7.97;3.50;;;;;;;7.21;73.80;95747.38;5035143;28;20418;-88
2020/12/15 03:17:24;;;;;;;6.57;4.47;;;;;;;6.95;76.10;95731.56;5034782;28;20937;-88
2020/12/15 03:19:51;;;;;;;4.53;3.57;;;;;;;6.83;76.94;95706.28;5035677;28;20550;-88
2020/12/15 03:22:17;;;;;;;6.37;4.80;;;;;;;6.90;77.76;95735.09;5034934;28;20421;-87
2020/12/15 03:24:43;;;;;;;6.90;4.83;;;;;;;6.84;78.19;95729.19;5035150;28;20453;-87
2020/12/15 03:27:10;;;;;;;7.37;6.00;;;;;;;6.71;79.24;95721.25;5035157;28;20526;-88
2020/12/15 03:29:36;;;;;;;15.03;7.80;;;;;;;6.71;81.78;95697.84;5034840;28;20482;-88
2020/12/15 03:32:04;;;;;;;11.80;7.70;;;;;;;6.60;82.59;95674.03;5035098;28;20498;-88
2020/12/15 03:34:30;;;;;;;13.60;7.20;;;;;;;6.11;84.03;95663.41;5041233;28;20473;-89
2020/12/15 03:36:57;;;;;;;9.73;6.20;;;;;;;6.11;83.90;95681.47;5058644;28;20429;-89
2020/12/15 03:39:23;;;;;;;11.40;5.90;;;;;;;6.01;84.89;95677.84;5055936;28;20453;-88
2020/12/15 03:41:49;;;;;;;7.83;5.93;;;;;;;6.00;84.93;95661.03;5052872;28;20440;-88
2020/12/15 03:44:16;;;;;;;8.77;5.57;;;;;;;6.12;84.29;95648.06;5036715;28;20439;-88
2020/12/15 03:46:42;;;;;;;9.83;5.50;;;;;;;6.21;84.02;95645.63;5040049;28;20399;-88
2020/12/15 03:49:09;;;;;;;8.90;5.37;;;;;;;6.35;83.51;95651.59;5039372;28;20449;-88
2020/12/15 03:51:36;;;;;;;7.67;5.57;;;;;;;6.37;84.25;95665.16;5035147;28;20801;-88
2020/12/15 03:54:02;;;;;;;8.33;5.90;;;;;;;6.37;84.66;95683.94;5034593;28;20494;-88
2020/12/15 03:56:28;;;;;;;8.73;5.50;;;;;;;6.48;83.82;95700.41;5034217;28;20425;-87
2020/12/15 03:58:55;;;;;;;9.53;7.00;;;;;;;6.57;83.71;95693.16;5034816;28;20820;-87
2020/12/15 04:01:21;;;;;;;9.80;7.47;;;;;;;6.44;84.85;95700.06;5036486;28;20469;-87
2020/12/15 04:03:48;;;;;;;9.60;6.70;;;;;;;6.38;85.13;95704.13;5035728;28;20940;-87
2020/12/15 04:06:15;;;;;;;10.30;7.73;;;;;;;6.21;85.96;95727.94;5034545;28;20819;-87
2020/12/15 04:08:41;;;;;;;12.80;9.20;;;;;;;6.18;86.20;95719.00;5034965;28;20470;-88
2020/12/15 04:11:08;;;;;;;13.57;8.33;;;;;;;6.08;86.58;95718.03;5034397;28;20582;-89
2020/12/15 04:13:34;;;;;;;11.17;7.80;;;;;;;6.10;87.04;95725.56;5034532;28;20505;-88
2020/12/15 04:16:01;;;;;;;12.00;8.40;;;;;;;6.12;87.48;95723.78;5035612;28;20418;-88
2020/12/15 04:18:27;;;;;;;16.40;8.40;;;;;;;6.07;87.24;95716.63;5038459;28;20533;-88
2020/12/15 04:20:53;;;;;;;12.30;8.33;;;;;;;5.95;87.95;95730.81;5038817;28;20413;-88
2020/12/15 04:23:20;;;;;;;10.07;7.67;;;;;;;5.84;88.55;95732.47;5038527;28;20442;-87
2020/12/15 04:25:54;;;;;;;10.50;8.07;;;;;;;5.83;88.55;95738.34;5038607;28;20867;-87
2020/12/15 04:28:21;;;;;;;9.90;7.80;;;;;;;5.83;88.92;95719.59;5038542;28;20417;-86
2020/12/15 04:30:48;;;;;;;10.80;8.50;;;;;;;5.74;89.32;95733.44;5038815;28;20506;-88
2020/12/15 04:33:14;;;;;;;11.43;8.17;;;;;;;5.80;88.90;95726.00;5037763;28;20506;-87
2020/12/15 04:35:41;;;;;;;12.87;9.47;;;;;;;5.92;88.82;95713.81;5038610;28;20435;-87
2020/12/15 04:38:07;;;;;;;8.00;6.37;;;;;;;5.88;88.07;95708.81;5038269;28;20493;-87
2020/12/15 04:40:35;;;;;;;9.43;6.40;;;;;;;5.93;87.45;95712.56;5038256;28;20941;-87
2020/12/15 04:43:02;;;;;;;10.40;7.33;;;;;;;5.94;87.34;95703.31;5038349;28;20414;-87
2020/12/15 04:45:29;;;;;;;11.30;6.77;;;;;;;5.99;86.75;95704.41;5038556;28;20435;-87
2020/12/15 04:48:04;;;;;;;10.60;6.77;;;;;;;6.06;86.64;95725.88;5037778;28;20454;-87
2020/12/15 04:50:34;;;;;;;7.23;6.20;;;;;;;6.10;85.24;95739.66;5037487;28;20531;-87
2020/12/15 04:53:07;;;;;;;9.30;5.80;;;;;;;6.05;85.18;95729.78;5038138;28;20425;-86
2020/12/15 04:55:36;;;;;;;6.43;4.97;;;;;;;6.03;85.50;95731.56;5038415;28;20492;-86
2020/12/15 04:58:03;;;;;;;7.77;5.17;;;;;;;6.11;84.77;95735.03;5038306;28;20426;-87
2020/12/15 05:00:30;;;;;;;7.70;5.27;;;;;;;6.20;84.44;95732.56;5038110;28;20521;-87
2020/12/15 05:02:57;;;;;;;7.60;4.00;;;;;;;6.26;83.44;95735.13;5038815;28;20418;-87
2020/12/15 05:05:25;;;;;;;4.30;3.83;;;;;;;6.32;82.93;95731.06;5039336;28;20419;-87
2020/12/15 05:07:52;;;;;;;5.90;4.27;;;;;;;6.39;82.70;95740.41;5041830;28;20776;-87
2020/12/15 05:10:21;;;;;;;6.53;4.00;;;;;;;6.42;82.05;95742.03;5057346;28;20475;-88
2020/12/15 05:12:48;;;;;;;6.60;4.00;;;;;;;6.50;81.76;95732.06;5055543;28;20439;-87
2020/12/15 05:15:16;;;;;;;5.67;3.73;;;;;;;6.44;82.46;95721.50;5038305;28;20430;-88
2020/12/15 05:17:43;;;;;;;7.37;4.43;;;;;;;6.52;81.47;95726.88;5038108;28;20900;-87
2020/12/15 05:20:10;;;;;;;5.63;4.63;;;;;;;6.57;81.40;95728.69;5038008;28;20773;-87
2020/12/15 05:22:44;;;;;;;6.73;4.27;;;;;;;6.52;81.39;95720.78;5037810;28;20455;-88
2020/12/15 05:25:24;;;;;;;7.10;4.60;;;;;;;6.48;82.27;95705.78;5040661;28;20518;-88
2020/12/15 05:27:52;;;;;;;6.70;5.00;;;;;;;6.51;81.83;95716.69;5037624;28;20409;-88
2020/12/15 05:30:19;;;;;;;8.00;5.23;;;;;;;6.51;82.08;95714.75;5037561;28;20458;-88
2020/12/15 05:32:51;;;;;;;10.90;4.60;;;;;;;6.50;82.24;95720.63;5037470;28;20458;-88
2020/12/15 05:35:26;;;;;;;12.80;5.10;;;;;;;6.47;82.27;95719.72;5038349;28;20975;-88
2020/12/15 05:37:54;;;;;;;9.73;5.27;;;;;;;6.44;82.57;95718.09;5038065;28;20635;-88
2020/12/15 05:40:20;;;;;;;10.90;4.77;;;;;;;6.48;82.57;95711.13;5038681;28;20542;-88
2020/12/15 05:42:55;;;;;;;11.67;4.93;;;;;;;6.51;82.66;95709.38;5039033;28;20454;-87
2020/12/15 05:45:22;;;;;;;6.90;4.60;;;;;;;6.51;82.59;95705.97;5038028;28;20429;-88
2020/12/15 05:47:50;;;;;;;8.60;4.60;;;;;;;6.66;82.01;95703.38;5038587;28;20462;-88
2020/12/15 05:50:21;;;;;;;5.00;3.90;;;;;;;6.71;81.10;95703.22;5038699;28;20479;-89
2020/12/15 05:52:55;;;;;;;5.27;3.57;;;;;;;6.75;80.88;95698.22;5038448;28;20493;-87
2020/12/15 05:55:22;;;;;;;6.00;3.67;;;;;;;6.87;80.78;95712.03;5049166;28;20434;-89
2020/12/15 05:57:48;;;;;;;10.33;5.77;;;;;;;6.81;80.67;95714.88;5059792;28;20529;-89
2020/12/15 06:00:15;;;;;;;9.77;5.80;;;;;;;6.80;80.90;95704.66;5059818;28;20455;-89
2020/12/15 06:02:42;;;;;;;7.60;4.50;;;;;;;6.87;81.13;95714.72;5059578;28;20480;-90
2020/12/15 06:05:09;;;;;;;14.53;5.17;;;;;;;6.79;81.92;95727.38;5049423;28;20787;-91
2020/12/15 06:07:36;;;;;;;10.17;6.33;;;;;;;6.81;82.20;95724.88;5042111;28;20424;-90
2020/12/15 06:10:05;;;;;;;9.47;6.83;;;;;;;6.85;82.62;95723.28;5039724;28;20461;-90
2020/12/15 06:12:32;;;;;;;14.30;7.63;;;;;;;6.87;82.69;95723.47;5038182;28;20431;-90
2020/12/15 06:14:59;;;;;;;9.67;6.50;;;;;;;6.70;83.79;95727.88;5039261;28;20559;-88
2020/12/15 06:17:27;;;;;;;14.90;7.40;;;;;;;6.61;84.41;95729.06;5038778;28;20475;-86
2020/12/15 06:19:59;;;;;;;16.43;9.30;;;;;;;6.67;84.28;95721.59;5039434;28;20521;-88
2020/12/15 06:22:26;;;;;;;11.00;8.10;;;;;;;6.62;84.98;95727.09;5038321;28;20489;-87
2020/12/15 06:24:56;;;;;;;11.50;8.37;;;;;;;6.54;85.23;95729.03;5038256;28;20896;-87
2020/12/15 06:27:31;;;;;;;14.83;8.60;;;;;;;6.44;86.21;95718.81;5037740;28;20449;-87
2020/12/15 06:29:58;;;;;;;15.27;8.80;;;;;;;6.35;87.48;95723.94;5037760;28;20457;-88
2020/12/15 06:32:24;;;;;;;10.43;8.73;;;;;;;6.35;87.58;95724.66;5036889;28;20432;-87
2020/12/15 06:34:53;;;;;;;14.70;9.47;;;;;;;6.30;88.37;95728.19;5037964;28;20853;-87
2020/12/15 06:37:21;;;;;;;11.97;8.67;;;;;;;6.31;89.13;95729.63;5037042;28;20463;-87
2020/12/15 06:39:58;;;;;;;14.87;9.60;;;;;;;6.34;89.47;95725.16;5036664;28;20434;-87
2020/12/15 06:42:24;;;;;;;15.00;10.63;;;;;;;6.38;89.00;95726.28;5037529;28;20427;-87
2020/12/15 06:45:04;;;;;;;14.83;10.20;;;;;;;6.30;89.80;95722.09;5038095;28;20413;-87
2020/12/15 06:47:31;;;;;;;17.03;10.40;;;;;;;6.25;89.46;95715.66;5037385;28;20418;-87
2020/12/15 06:50:08;;;;;;;15.27;10.17;;;;;;;6.34;89.57;95727.84;5037543;28;20487;-87
2020/12/15 06:52:34;;;;;;;13.00;9.00;;;;;;;6.69;90.18;95726.44;5038303;28;20552;-86
2020/12/15 06:55:05;;;;;;;12.23;8.33;;;;;;;6.76;87.03;95736.47;5039386;28;20472;-90
2020/12/15 06:57:33;;;;;;;13.80;8.43;;;;;;;6.75;86.79;95738.44;5039928;28;20893;-87
2020/12/15 07:00:04;;;;;;;11.80;8.73;;;;;;;6.71;86.32;95748.78;5038335;28;20434;-87
2020/12/15 07:02:32;;;;;;;12.77;9.60;;;;;;;6.78;86.68;95742.75;5038817;28;20436;-85
2020/12/15 07:05:18;;;;;;;11.20;8.53;;;;;;;6.69;86.38;95740.56;5037083;28;20745;-86
2020/12/15 07:07:47;;;;;;;15.43;8.90;;;;;;;6.90;85.55;95735.81;5036741;28;20424;-86
2020/12/15 07:10:14;;;;;;;15.40;8.67;;;;;;;6.90;85.21;95741.19;5037309;28;20480;-86
2020/12/15 07:12:42;;;;;;;13.57;8.23;;;;;;;6.86;85.85;95738.13;5036507;28;20440;-86
2020/12/15 07:15:11;;;;;;;13.73;8.73;;;;;;;6.94;84.94;95733.53;5036634;28;20447;-86
2020/12/15 07:17:37;;;;;;;14.20;8.57;;;;;;;6.70;85.82;95742.00;5036436;28;20422;-86
2020/12/15 07:20:04;;;;;;;16.43;10.33;;;;;;;6.58;86.38;95742.81;5037934;28;20467;-88
2020/12/15 07:22:31;;;;;;;12.07;9.27;;;;;;;6.45;87.20;95749.69;5037195;28;20912;-86
2020/12/15 07:24:58;;;;;;;26.20;10.30;;;;;;;6.47;87.37;95755.28;5036500;28;20493;-87
2020/12/15 07:27:24;;;;;;;12.73;8.10;;;;;;;6.50;87.53;95756.16;5036865;28;20441;-87
2020/12/15 07:29:54;;;;;;;16.90;8.97;;;;;;;6.57;87.71;95765.50;5036061;28;20458;-88
2020/12/15 07:32:20;;;;;;;13.90;9.27;;;;;;;6.41;87.31;95753.97;5036622;28;20496;-87
2020/12/15 07:34:46;;;;;;;12.03;7.13;;;;;;;6.37;87.63;95756.25;5042692;28;20820;-87
2020/12/15 07:37:19;;;;;;;16.60;9.57;;;;;;;6.38;87.84;95757.72;5041853;28;20413;-87
2020/12/15 07:39:46;;;;;;;11.10;7.90;;;;;;;6.39;88.00;95762.53;5039351;28;20477;-88
2020/12/15 07:42:13;;;;;;;12.10;7.97;;;;;;;6.40;88.08;95757.88;5037462;28;20926;-87
2020/12/15 07:44:39;;;;;;;12.57;7.87;;;;;;;6.39;88.19;95759.16;5037657;28;20517;-86
2020/12/15 07:47:06;;;;;;;12.80;8.33;;;;;;;6.44;87.78;95769.72;5038415;28;20421;-86
2020/12/15 07:49:33;;;;;;;10.97;8.20;;;;;;;6.44;87.93;95769.72;5036601;28;20942;-86
2020/12/15 07:51:59;;;;;;;15.43;9.03;;;;;;;6.37;88.61;95769.66;5035240;28;21025;-86
2020/12/15 07:54:25;;;;;;;14.30;10.50;;;;;;;6.34;88.98;95771.44;5035640;28;20422;-86
2020/12/15 07:56:53;;;;;;;15.40;10.20;;;;;;;6.35;89.21;95783.59;5036124;28;20504;-87
2020/12/15 07:59:20;;;;;;;17.87;11.07;;;;;;;6.27;89.90;95777.44;5036295;28;20803;-87
2020/12/15 08:01:46;;;;;;;12.47;9.70;;;;;;;6.40;90.05;95768.59;5037344;28;20443;-87
2020/12/15 08:04:14;;;;;;;14.63;9.10;;;;;;;6.35;90.63;95772.16;5036826;28;20492;-87
2020/12/15 08:06:43;;;;;;;14.20;9.30;;;;;;;6.37;90.48;95775.75;5036360;28;20429;-88
2020/12/15 08:09:11;;;;;;;18.30;10.53;;;;;;;6.38;90.28;95771.81;5037647;28;20441;-88
2020/12/15 08:11:43;;;;;;;15.73;9.47;;;;;;;6.38;90.20;95779.88;5036336;28;20457;-88
2020/12/15 08:14:13;;;;;;;15.83;8.50;;;;;;;6.42;89.55;95779.53;5038023;28;20505;-92
2020/12/15 08:16:40;;;;;;;12.10;7.93;;;;;;;6.50;90.01;95777.59;5041242;28;20866;-93
2020/12/15 08:19:07;;;;;;;12.50;8.40;;;;;;;6.53;89.76;95786.56;5040747;28;20474;-91
2020/12/15 08:21:42;;;;;;;13.23;9.23;;;;;;;6.50;89.22;95782.25;5038893;28;20448;-91
2020/12/15 08:24:10;;;;;;;15.33;9.20;;;;;;;6.51;89.50;95784.41;5039893;28;20462;-92
2020/12/15 08:26:37;;;;;;;14.97;8.63;;;;;;;6.55;89.45;95803.53;5040127;28;20461;-91
2020/12/15 08:29:08;;;;;;;15.03;9.33;;;;;;;6.57;89.79;95794.97;5042814;28;20516;-93
2020/12/15 08:31:36;;;;;;;16.87;10.37;;;;;;;6.58;89.54;95799.81;5043056;28;20450;-92
2020/12/15 08:34:09;;;;;;;14.73;9.53;;;;;;;6.63;89.49;95800.91;5039783;28;20417;-91
2020/12/15 08:36:41;;;;;;;16.37;9.97;;;;;;;6.62;89.32;95808.22;5041846;28;20840;-91
2020/12/15 08:39:11;;;;;;;14.80;10.17;;;;;;;6.61;89.72;95803.41;5042131;28;21039;-88
2020/12/15 08:41:37;;;;;;;14.23;8.30;;;;;;;6.65;89.16;95817.91;5051428;28;20564;-91
2020/12/15 08:44:04;;;;;;;13.13;9.43;;;;;;;6.69;88.98;95820.25;5043607;28;20450;-90
2020/12/15 08:46:36;;;;;;;9.57;7.17;;;;;;;6.68;88.60;95811.50;5041771;28;20411;-92
2020/12/15 08:49:02;;;;;;;11.77;7.80;;;;;;;6.73;88.75;95809.91;5045777;28;20433;-91
2020/12/15 08:51:30;;;;;;;11.53;7.97;;;;;;;6.75;88.14;95821.53;5051719;28;20496;-90
2020/12/15 08:54:00;;;;;;;13.00;8.30;;;;;;;6.83;88.41;95824.97;5038450;28;20630;-90
2020/12/15 08:56:30;;;;;;;13.90;8.47;;;;;;;6.96;87.73;95818.78;5054305;28;20414;-90
2020/12/15 08:58:57;;;;;;;11.90;7.73;;;;;;;6.97;87.60;95830.97;5057425;28;20426;-89
2020/12/15 09:01:29;;;;;;;14.00;9.27;;;;;;;6.96;87.13;95832.19;5057102;28;20437;-89
2020/12/15 09:03:56;;;;;;;10.47;6.90;;;;;;;6.99;86.84;95828.47;5058252;28;20408;-92
2020/12/15 09:06:30;;;;;;;10.60;7.30;;;;;;;6.94;87.03;95834.69;5043209;28;20439;-91
2020/12/15 09:08:57;;;;;;;19.00;9.90;;;;;;;7.01;87.09;95834.03;5042832;28;21008;-90
2020/12/15 09:11:23;;;;;;;15.60;11.10;;;;;;;7.02;86.64;95848.84;5044253;28;20486;-90
2020/12/15 09:13:54;;;;;;;19.73;12.80;;;;;;;7.06;86.87;95846.56;5043527;28;20430;-90
2020/12/15 09:16:29;;;;;;;15.60;9.90;;;;;;;7.03;86.98;95833.50;5042465;28;20504;-90
2020/12/15 09:18:57;;;;;;;17.77;9.53;;;;;;;6.99;87.20;95839.19;5042583;28;20445;-89
2020/12/15 09:21:24;;;;;;;16.53;10.10;;;;;;;7.02;86.78;95834.75;5043260;28;20422;-90
2020/12/15 09:23:52;;;;;;;14.73;9.43;;;;;;;7.12;86.36;95846.41;5041818;28;20450;-89
2020/12/15 09:26:20;;;;;;;13.40;8.80;;;;;;;7.20;86.52;95845.22;5042860;28;20410;-89
2020/12/15 09:28:47;;;;;;;13.90;8.50;;;;;;;7.30;85.93;95832.72;5045297;28;20474;-89
2020/12/15 09:31:14;;;;;;;12.60;8.63;;;;;;;7.27;86.19;95833.06;5055108;28;20457;-89
2020/12/15 09:33:40;;;;;;;12.20;8.17;;;;;;;7.27;85.82;95841.09;5044896;28;20453;-90
2020/12/15 09:36:08;;;;;;;16.67;8.10;;;;;;;7.29;86.03;95842.03;5045059;28;20425;-91
2020/12/15 09:38:34;;;;;;;12.30;9.27;;;;;;;7.31;85.71;95834.16;5042689;28;20466;-90
2020/12/15 09:41:00;;;;;;;12.07;8.90;;;;;;;7.43;84.99;95843.34;5046242;28;20875;-89
2020/12/15 09:43:27;;;;;;;15.50;10.20;;;;;;;7.41;85.07;95840.47;5043172;28;20698;-90
2020/12/15 09:45:53;;;;;;;14.00;9.17;;;;;;;7.33;85.65;95834.34;5046024;28;20428;-90
2020/12/15 09:48:20;;;;;;;14.90;11.03;;;;;;;7.40;86.13;95847.09;5043701;28;20465;-91
2020/12/15 09:50:46;;;;;;;14.13;8.80;;;;;;;7.39;86.13;95840.25;5042179;28;20461;-90
2020/12/15 09:53:14;;;;;;;14.03;9.30;;;;;;;7.49;85.47;95848.53;5045693;28;20447;-90
2020/12/15 09:55:40;;;;;;;21.03;11.30;;;;;;;7.40;85.73;95846.34;5045026;28;20430;-91
2020/12/15 09:58:07;;;;;;;15.57;9.37;;;;;;;7.49;85.60;95840.47;5042340;28;20867;-91
2020/12/15 10:00:33;;;;;;;12.57;9.63;;;;;;;7.47;85.69;95841.03;5044729;28;20474;-91
2020/12/15 10:02:59;;;;;;;15.83;9.70;;;;;;;7.45;85.80;95843.53;5040378;28;20919;-90
2020/12/15 10:05:26;;;;;;;19.00;12.07;;;;;;;7.42;86.18;95839.19;5044832;28;20398;-91
2020/12/15 10:07:53;;;;;;;12.40;7.90;;;;;;;7.40;86.65;95836.34;5048425;28;20442;-89
2020/12/15 10:10:20;;;;;;;14.67;8.60;;;;;;;7.39;86.76;95847.63;5043671;28;21015;-91
2020/12/15 10:12:47;;;;;;;15.17;10.17;;;;;;;7.43;86.47;95840.66;5054348;28;20449;-90
2020/12/15 10:15:14;;;;;;;13.37;9.60;;;;;;;7.41;86.66;95839.75;5058645;28;20414;-89
2020/12/15 10:17:40;;;;;;;14.83;9.37;;;;;;;7.36;86.73;95833.28;5059585;28;20417;-91
2020/12/15 10:20:07;;;;;;;16.47;10.00;;;;;;;7.48;86.89;95831.72;5052730;28;20734;-87
2020/12/15 10:22:33;;;;;;;14.27;9.20;;;;;;;7.47;86.80;95826.88;5042734;28;20443;-87
2020/12/15 10:25:01;;;;;;;15.43;10.67;;;;;;;7.49;86.43;95829.75;5045530;28;20422;-88
2020/12/15 10:27:28;;;;;;;12.37;8.83;;;;;;;7.57;86.71;95832.47;5041733;28;20436;-88
2020/12/15 10:29:55;;;;;;;17.03;8.60;;;;;;;7.57;86.34;95830.50;5041451;28;20468;-88
2020/12/15 10:32:24;;;;;;;13.70;9.47;;;;;;;7.68;86.01;95826.75;5044327;28;20441;-88
2020/12/15 10:34:50;;;;;;;16.03;9.63;;;;;;;7.65;85.47;95822.47;5042619;28;20535;-88
2020/12/15 10:37:17;;;;;;;12.97;8.50;;;;;;;7.72;85.50;95835.19;5049170;28;20501;-92
2020/12/15 10:39:43;;;;;;;17.83;9.83;;;;;;;7.84;85.47;95828.22;5043474;28;20457;-88
2020/12/15 10:42:10;;;;;;;15.67;9.60;;;;;;;7.91;85.04;95830.22;5038841;28;20439;-86
2020/12/15 10:44:37;;;;;;;13.60;9.93;;;;;;;7.90;84.74;95828.78;5044064;28;20470;-88
2020/12/15 10:47:03;;;;;;;14.03;9.23;;;;;;;7.97;84.35;95834.19;5041035;28;20410;-88
2020/12/15 10:49:30;;;;;;;14.77;9.63;;;;;;;7.99;84.39;95831.66;5039239;28;20426;-88
2020/12/15 10:51:56;;;;;;;16.73;9.27;;;;;;;8.00;84.21;95835.06;5042179;28;20516;-89
2020/12/15 10:54:24;;;;;;;14.63;8.60;;;;;;;8.03;84.57;95842.78;5041293;28;20428;-90
2020/12/15 10:56:51;;;;;;;13.53;8.50;;;;;;;8.08;84.79;95839.19;5040494;28;20443;-89
2020/12/15 10:59:17;;;;;;;11.20;7.90;;;;;;;8.25;84.23;95837.97;5038405;28;20470;-87
2020/12/15 11:01:50;;;;;;;9.73;7.87;;;;;;;8.26;84.35;95848.19;5039074;28;20420;-90
2020/12/15 11:04:17;;;;;;;12.73;8.17;;;;;;;8.38;84.06;95848.56;5041662;28;20419;-89
2020/12/15 11:06:43;;;;;;;15.47;7.27;;;;;;;8.49;82.99;95842.81;5039459;28;20422;-88
2020/12/15 11:09:10;;;;;;;15.00;8.13;;;;;;;8.54;83.57;95839.97;5044527;28;20442;-90
2020/12/15 11:11:37;;;;;;;12.90;7.73;;;;;;;8.57;83.74;95838.88;5045818;28;20486;-91
2020/12/15 11:14:04;;;;;;;10.43;6.90;;;;;;;8.65;83.73;95833.50;5041671;28;20436;-88
2020/12/15 11:16:31;;;;;;;16.60;8.40;;;;;;;8.70;83.49;95832.59;5042750;28;20431;-90
2020/12/15 11:18:58;;;;;;;10.93;7.97;;;;;;;8.75;83.44;95837.06;5042853;28;20501;-90
2020/12/15 11:21:24;;;;;;;13.63;6.97;;;;;;;8.81;83.99;95837.59;5043642;28;20474;-88
2020/12/15 11:23:51;;;;;;;11.50;6.80;;;;;;;8.91;83.69;95835.06;5040260;28;20471;-90
2020/12/15 11:26:17;;;;;;;10.00;6.43;;;;;;;8.95;83.49;95827.34;5047137;28;20455;-88
2020/12/15 11:28:44;;;;;;;9.87;7.40;;;;;;;9.01;83.63;95841.34;5045074;28;20474;-90
2020/12/15 11:31:11;;;;;;;14.37;7.40;;;;;;;9.04;83.97;95838.28;5042885;28;20464;-88
2020/12/15 11:33:37;;;;;;;10.40;6.10;;;;;;;9.13;84.54;95834.31;5040824;28;20416;-89
2020/12/15 11:36:05;;;;;;;9.03;6.40;;;;;;;9.20;83.73;95827.47;5039576;28;20421;-89
2020/12/15 11:38:31;;;;;;;11.00;6.10;;;;;;;9.26;83.87;95842.16;5038721;28;20451;-87